createdAt,value
2024-01-29T00:04:53.382Z,12.07
2024-01-29T00:09:57.189Z,12.98
2024-01-29T00:15:03.710Z,11.73
2024-01-29T00:20:13.037Z,13.05
2024-01-29T00:25:16.808Z,12.68
2024-01-29T00:30:26.904Z,12.25
2024-01-29T00:35:30.661Z,14.20
2024-01-29T00:40:39.330Z,12.73
2024-01-29T00:45:44.570Z,12.40
2024-01-29T00:50:48.432Z,13.57
2024-01-29T00:55:57.216Z,14.05
2024-01-29T01:01:07.912Z,11.57
2024-01-29T01:06:16.741Z,10.02
2024-01-29T01:11:25.513Z,10.18
2024-01-29T01:16:30.615Z,11.30
2024-01-29T01:21:39.383Z,11.05
2024-01-29T01:26:48.037Z,10.93
2024-01-29T01:31:53.066Z,11.18
2024-01-29T01:37:01.820Z,10.65
2024-01-29T01:42:10.905Z,12.82
2024-01-29T01:47:21.109Z,10.23
2024-01-29T01:52:24.947Z,9.88
2024-01-29T01:57:34.277Z,7.82
2024-01-29T02:02:44.808Z,7.75
2024-01-29T02:07:48.502Z,8.48
2024-01-29T02:12:52.450Z,9.18
2024-01-29T02:18:02.567Z,8.75
2024-01-29T02:23:12.677Z,9.52
2024-01-29T02:28:21.493Z,8.98
2024-01-29T02:33:25.330Z,8.32
2024-01-29T02:38:30.584Z,8.07
2024-01-29T02:43:34.354Z,8.20
2024-01-29T02:48:39.713Z,7.82
2024-01-29T02:53:50.025Z,7.70
2024-01-29T02:58:53.729Z,7.35
2024-01-29T03:03:57.592Z,6.38
2024-01-29T03:09:07.794Z,5.70
2024-01-29T03:14:16.536Z,5.40
2024-01-29T03:19:20.782Z,6.57
2024-01-29T03:24:30.930Z,5.90
2024-01-29T03:29:39.637Z,5.90
2024-01-29T03:34:44.085Z,5.45
2024-01-29T03:39:49.332Z,5.45
2024-01-29T03:44:58.076Z,4.35
2024-01-29T03:50:08.119Z,6.05
2024-01-29T03:55:13.534Z,5.32
2024-01-29T04:00:20.089Z,5.95
2024-01-29T04:05:28.960Z,5.55
2024-01-29T04:10:39.066Z,6.55
2024-01-29T04:15:48.391Z,4.63
2024-01-29T04:20:57.720Z,4.20
2024-01-29T04:26:07.821Z,5.00
2024-01-29T04:31:11.646Z,4.43
2024-01-29T04:36:20.386Z,4.65
2024-01-29T04:41:25.476Z,4.00
2024-01-29T04:46:29.136Z,3.67
2024-01-29T04:51:38.540Z,4.28
2024-01-29T04:56:43.617Z,4.63
2024-01-29T05:01:47.370Z,4.95
2024-01-29T05:06:51.427Z,4.25
2024-01-29T05:12:02.042Z,4.90
2024-01-29T05:17:11.999Z,4.20
2024-01-29T05:22:20.818Z,5.95
2024-01-29T05:27:31.027Z,3.63
2024-01-29T05:32:39.900Z,4.65
2024-01-29T05:37:48.839Z,4.35
2024-01-29T05:42:54.729Z,7.75
2024-01-29T05:48:05.409Z,5.87
2024-01-29T05:53:14.162Z,5.05
2024-01-29T05:58:24.218Z,4.22
2024-01-29T06:03:27.913Z,4.00
2024-01-29T06:08:36.720Z,5.13
2024-01-29T06:13:46.765Z,5.22
2024-01-29T06:18:50.762Z,5.35
2024-01-29T06:23:59.573Z,5.38
2024-01-29T06:29:12.302Z,4.40
2024-01-29T06:34:24.491Z,4.65
2024-01-29T06:39:28.651Z,5.05
2024-01-29T06:44:33.880Z,5.55
2024-01-29T06:49:42.741Z,6.40
2024-01-29T06:54:46.951Z,6.95
2024-01-29T06:59:57.212Z,6.70
2024-01-29T07:05:06.594Z,6.45
2024-01-29T07:10:15.906Z,7.93
2024-01-29T07:15:26.286Z,7.72
2024-01-29T07:20:31.086Z,5.63
2024-01-29T07:25:34.772Z,5.57
2024-01-29T07:30:44.833Z,6.38
2024-01-29T07:35:53.503Z,7.43
2024-01-29T07:40:57.512Z,5.93
2024-01-29T07:46:09.388Z,7.40
2024-01-29T07:51:13.088Z,12.25
2024-01-29T07:56:21.754Z,11.65
2024-01-29T08:01:32.015Z,8.95
2024-01-29T08:06:40.914Z,9.90
2024-01-29T08:11:44.706Z,8.07
2024-01-29T08:16:54.887Z,9.00
2024-01-29T08:21:58.838Z,9.77
2024-01-29T08:27:08.017Z,15.40
2024-01-29T08:32:20.482Z,18.17
2024-01-29T08:37:29.867Z,17.80
2024-01-29T08:42:38.642Z,17.92
2024-01-29T08:47:48.784Z,16.52
2024-01-29T08:52:58.224Z,9.27
2024-01-29T08:58:09.456Z,10.93
2024-01-29T09:03:19.637Z,9.37
2024-01-29T09:08:23.564Z,9.10
2024-01-29T09:13:32.268Z,8.52
2024-01-29T09:18:37.372Z,8.80
2024-01-29T09:23:46.208Z,6.82
2024-01-29T09:28:55.146Z,6.70
2024-01-29T09:34:00.332Z,4.72
2024-01-29T09:39:09.219Z,5.43
2024-01-29T09:44:18.054Z,5.45
2024-01-29T09:49:28.347Z,6.28
2024-01-29T09:54:39.129Z,6.18
2024-01-29T09:59:43.040Z,6.00
2024-01-29T10:04:48.227Z,4.93
2024-01-29T10:09:56.995Z,6.15
2024-01-29T10:15:06.420Z,5.50
2024-01-29T10:20:23.492Z,5.65
2024-01-29T10:25:27.875Z,5.90
2024-01-29T10:30:36.830Z,5.57
2024-01-29T10:35:47.046Z,5.93
2024-01-29T10:40:51.551Z,6.85
2024-01-29T10:46:00.911Z,6.80
2024-01-29T10:51:07.684Z,5.90
2024-01-29T10:56:13.022Z,6.25
2024-01-29T11:01:22.063Z,6.38
2024-01-29T11:06:32.794Z,6.72
2024-01-29T11:11:37.931Z,6.30
2024-01-29T11:16:42.049Z,7.25
2024-01-29T11:21:50.361Z,7.32
2024-01-29T11:26:56.126Z,7.32
2024-01-29T11:32:08.761Z,7.82
2024-01-29T11:37:16.426Z,7.80
2024-01-29T11:42:22.019Z,6.90
2024-01-29T11:47:30.795Z,5.85
2024-01-29T11:52:40.908Z,5.43
2024-01-29T11:57:46.615Z,6.07
2024-01-29T12:02:55.527Z,5.53
2024-01-29T12:08:06.293Z,6.82
2024-01-29T12:13:15.485Z,4.87
2024-01-29T12:18:26.430Z,6.00
2024-01-29T12:23:36.487Z,5.80
2024-01-29T12:28:45.787Z,6.22
2024-01-29T12:33:54.800Z,6.88
2024-01-29T12:39:06.408Z,6.00
2024-01-29T12:44:15.186Z,6.20
2024-01-29T12:49:24.344Z,6.10
2024-01-29T12:54:29.502Z,6.55
2024-01-29T12:59:38.395Z,7.05
2024-01-29T13:04:42.120Z,7.13
2024-01-29T13:09:48.329Z,6.63
2024-01-29T13:14:57.542Z,7.53
2024-01-29T13:20:02.058Z,6.97
2024-01-29T13:25:12.319Z,6.18
2024-01-29T13:30:16.398Z,6.68
2024-01-29T13:35:25.209Z,7.22
2024-01-29T13:40:35.349Z,6.63
2024-01-29T13:45:44.782Z,8.32
2024-01-29T13:50:48.535Z,6.70
2024-01-29T13:55:53.652Z,7.45
2024-01-29T14:01:02.447Z,7.90
2024-01-29T14:06:11.297Z,15.13
2024-01-29T14:11:21.383Z,24.40
2024-01-29T14:16:25.225Z,9.88
2024-01-29T14:21:29.037Z,6.50
2024-01-29T14:26:42.202Z,12.75
2024-01-29T14:31:50.894Z,7.80
2024-01-29T14:37:00.164Z,7.20
2024-01-29T14:42:05.770Z,9.88
2024-01-29T14:47:17.448Z,10.30
2024-01-29T14:52:22.212Z,7.45
2024-01-29T14:57:27.272Z,7.82
2024-01-29T15:02:36.237Z,7.47
2024-01-29T15:07:40.887Z,9.20
2024-01-29T15:12:51.236Z,11.10
2024-01-29T15:17:55.884Z,12.40
2024-01-29T15:23:00.020Z,13.23
2024-01-29T15:28:07.279Z,12.65
2024-01-29T15:33:17.264Z,10.20
2024-01-29T15:38:25.968Z,14.52
2024-01-29T15:43:37.319Z,17.02
2024-01-29T15:48:41.344Z,9.73
2024-01-29T15:53:51.065Z,7.15
2024-01-29T15:59:01.610Z,6.55
2024-01-29T16:04:11.403Z,7.13
2024-01-29T16:09:20.133Z,6.57
2024-01-29T16:14:25.291Z,7.25
2024-01-29T16:19:29.268Z,7.57
2024-01-29T16:24:39.916Z,7.18
2024-01-29T16:29:45.034Z,6.45
2024-01-29T16:34:53.789Z,7.60
2024-01-29T16:39:57.872Z,7.88
2024-01-29T16:45:08.531Z,8.77
2024-01-29T16:50:12.511Z,9.93
2024-01-29T16:55:21.385Z,14.30
2024-01-29T17:00:31.656Z,13.85
2024-01-29T17:05:40.538Z,16.80
2024-01-29T17:10:44.313Z,15.60
2024-01-29T17:15:54.510Z,13.10
2024-01-29T17:21:03.382Z,14.25
2024-01-29T17:26:13.150Z,17.13
2024-01-29T17:31:18.477Z,14.50
2024-01-29T17:36:27.473Z,12.20
2024-01-29T17:41:36.135Z,10.73
2024-01-29T17:46:46.245Z,10.55
2024-01-29T17:51:49.944Z,8.43
2024-01-29T17:56:58.960Z,9.18
2024-01-29T18:02:04.555Z,8.20
2024-01-29T18:07:13.855Z,8.13
2024-01-29T18:12:22.619Z,8.15
2024-01-29T18:17:32.786Z,10.15
2024-01-29T18:22:41.609Z,10.60
2024-01-29T18:27:50.477Z,11.63
2024-01-29T18:33:00.745Z,13.00
2024-01-29T18:38:04.717Z,10.52
2024-01-29T18:43:13.449Z,12.65
2024-01-29T18:48:18.593Z,15.27
2024-01-29T18:53:27.354Z,14.90
2024-01-29T18:58:31.249Z,14.50
2024-01-29T19:03:41.468Z,11.27
2024-01-29T19:08:50.428Z,12.77
2024-01-29T19:13:59.194Z,15.50
2024-01-29T19:19:04.511Z,12.27
2024-01-29T19:24:08.864Z,12.40
2024-01-29T19:29:17.759Z,12.30
2024-01-29T19:34:28.027Z,12.18
2024-01-29T19:39:39.145Z,10.93
2024-01-29T19:44:49.256Z,11.40
2024-01-29T19:50:08.549Z,11.85
2024-01-29T19:55:18.118Z,13.10
2024-01-29T20:00:23.926Z,11.93
2024-01-29T20:05:34.383Z,11.55
2024-01-29T20:10:43.264Z,12.02
2024-01-29T20:15:54.872Z,12.57
2024-01-29T20:21:05.547Z,11.80
2024-01-29T20:26:09.334Z,11.43
2024-01-29T20:31:24.809Z,13.05
2024-01-29T20:36:30.954Z,12.85
2024-01-29T20:41:42.554Z,12.00
2024-01-29T20:46:50.424Z,11.65
2024-01-29T20:52:01.822Z,12.88
2024-01-29T20:57:06.306Z,12.60
2024-01-29T21:02:10.769Z,12.85
2024-01-29T21:56:01.541Z,8.77
2024-01-29T22:07:42.543Z,9.93
2024-01-29T22:12:52.639Z,11.88
2024-01-29T22:24:57.871Z,9.88
2024-01-29T22:30:11.736Z,10.13
2024-01-29T22:35:32.067Z,10.75
2024-01-29T22:40:47.015Z,10.05
2024-01-29T22:45:57.130Z,9.55
2024-01-29T22:51:08.004Z,10.35
2024-01-29T22:56:11.821Z,11.10
2024-01-29T23:01:22.161Z,10.00
2024-01-29T23:06:31.148Z,9.93
2024-01-29T23:11:34.909Z,9.88
2024-01-29T23:16:40.854Z,9.60
2024-01-29T23:21:49.512Z,10.07
2024-01-29T23:26:54.440Z,8.48
2024-01-29T23:31:59.526Z,8.70
2024-01-29T23:37:03.745Z,9.48
2024-01-29T23:42:07.606Z,9.18
2024-01-29T23:47:13.407Z,9.90
2024-01-29T23:52:27.328Z,9.13
2024-01-29T23:57:36.134Z,10.10
